Time;durP1;ratioP1;P1;durP2;ratioP2;P2;SDS_P1;SDS_P2;PMS_P1;PMS_P2;Temp;Humidity;BMP_temperature;BMP_pressure;BME280_temperature;BME280_humidity;BME280_pressure;Samples;Min_cycle;Max_cycle;Signal;HPM_P1;HPM_P2
2021/04/09 09:36:12;;;;;;;7.03;6.25;;;;;;;11.94;69.51;99937.30;1798171;77;27947;-70
2021/04/09 09:38:57;;;;;;;5.78;5.12;;;;;;;12.09;68.47;99928.50;1767263;79;20937;-72
2021/04/09 09:41:47;;;;;;;7.25;4.90;;;;;;;12.31;67.56;99932.92;1780527;79;22073;-72
2021/04/09 09:44:34;;;;;;;6.75;5.72;;;;;;;12.37;64.49;99935.56;1735228;80;21062;-71
2021/04/09 09:47:28;;;;;;;6.20;5.47;;;;;;;12.34;62.56;99938.22;1784249;80;21005;-73
2021/04/09 09:53:00;;;;;;;9.20;7.15;;;;;;;12.27;64.95;99933.78;1784340;79;21453;-73
2021/04/09 09:55:47;;;;;;;7.95;6.60;;;;;;;12.21;63.31;99925.84;1769381;80;21040;-71
2021/04/09 09:58:26;;;;;;;6.22;5.60;;;;;;;11.87;60.44;99935.09;1753270;80;21579;-70
2021/04/09 10:01:03;;;;;;;7.22;5.78;;;;;;;11.76;61.98;99937.22;1753231;81;20903;-72
2021/04/09 10:03:36;;;;;;;6.00;5.05;;;;;;;11.78;60.81;99940.34;1760937;80;21121;-72
2021/04/09 10:06:13;;;;;;;6.42;5.40;;;;;;;11.65;58.03;99940.72;1773628;80;21528;-73
2021/04/09 10:08:45;;;;;;;5.40;4.78;;;;;;;11.40;55.65;99940.22;1718664;82;21442;-72
2021/04/09 10:11:20;;;;;;;5.78;5.17;;;;;;;11.26;55.76;99937.94;1708692;83;21719;-72
2021/04/09 10:13:51;;;;;;;6.37;5.42;;;;;;;11.11;56.05;99938.77;1700353;83;21467;-71
2021/04/09 10:16:25;;;;;;;5.75;5.25;;;;;;;11.16;57.61;99937.02;1721177;82;22642;-72
2021/04/09 10:19:00;;;;;;;5.25;4.75;;;;;;;11.34;58.62;99937.09;1725281;82;20934;-72
2021/04/09 10:21:35;;;;;;;6.35;5.28;;;;;;;11.63;59.77;99928.39;1717377;83;21450;-72
2021/04/09 10:24:12;;;;;;;6.75;5.58;;;;;;;11.84;59.09;99928.48;1733666;81;21560;-72
2021/04/09 10:26:56;;;;;;;6.80;5.90;;;;;;;11.98;58.10;99924.52;1710107;83;21011;-72
2021/04/09 10:29:35;;;;;;;7.35;6.47;;;;;;;11.92;57.36;99926.73;1687706;83;20946;-72
2021/04/09 10:32:20;;;;;;;7.10;6.00;;;;;;;11.83;57.16;99928.04;1733954;82;20946;-71
2021/04/09 10:34:52;;;;;;;6.40;5.72;;;;;;;11.75;58.84;99930.16;1684080;83;21213;-71
2021/04/09 10:37:25;;;;;;;7.60;6.15;;;;;;;11.79;59.82;99925.36;1670160;84;20967;-71
2021/04/09 10:39:55;;;;;;;8.95;5.50;;;;;;;11.88;60.59;99925.41;1661517;85;20948;-70
2021/04/09 10:42:25;;;;;;;7.37;5.08;;;;;;;11.92;60.44;99922.77;1675206;85;21490;-70
2021/04/09 10:44:56;;;;;;;5.92;5.12;;;;;;;12.09;59.55;99923.20;1659754;85;21109;-70
2021/04/09 10:47:27;;;;;;;5.10;4.60;;;;;;;12.32;58.40;99924.11;1697740;84;21393;-71
2021/04/09 10:49:58;;;;;;;5.85;4.75;;;;;;;12.52;56.53;99921.44;1756977;79;21070;-71
2021/04/09 10:52:31;;;;;;;7.58;5.75;;;;;;;12.65;56.08;99917.87;1696037;84;20944;-72
2021/04/09 10:55:06;;;;;;;9.48;7.67;;;;;;;12.75;54.81;99919.61;1741453;81;20922;-72
2021/04/09 10:57:36;;;;;;;7.90;5.83;;;;;;;12.79;53.30;99917.43;1763407;79;20935;-74
2021/04/09 11:00:09;;;;;;;6.45;5.67;;;;;;;12.78;53.75;99920.96;1767791;79;21189;-73
2021/04/09 11:02:39;;;;;;;5.60;4.65;;;;;;;12.74;54.03;99923.59;1744036;81;20959;-73
2021/04/09 11:05:10;;;;;;;5.92;5.00;;;;;;;12.75;52.90;99920.05;1742147;81;20988;-73
2021/04/09 11:07:51;;;;;;;7.35;5.08;;;;;;;12.75;52.37;99920.94;1766990;81;20924;-76
2021/04/09 11:10:37;;;;;;;6.60;4.40;;;;;;;12.78;52.50;99917.44;1752191;79;21025;-73
2021/04/09 11:13:06;;;;;;;5.05;4.50;;;;;;;12.92;51.82;99915.62;1743960;81;21433;-72
2021/04/09 11:15:43;;;;;;;5.95;4.65;;;;;;;13.13;50.84;99912.00;1727093;81;21149;-73
2021/04/09 11:18:16;;;;;;;5.28;4.70;;;;;;;13.23;50.41;99911.11;1755723;81;21013;-74
2021/04/09 11:20:46;;;;;;;4.97;4.55;;;;;;;13.34;50.49;99909.77;1679937;84;21122;-74
2021/04/09 11:23:17;;;;;;;5.70;4.97;;;;;;;13.43;49.91;99906.62;1761186;81;20952;-73
2021/04/09 11:25:49;;;;;;;6.25;5.28;;;;;;;13.54;49.13;99900.80;1765016;81;20947;-73
2021/04/09 11:28:28;;;;;;;5.53;4.95;;;;;;;13.67;48.88;99897.62;1762304;81;21446;-72
2021/04/09 11:31:05;;;;;;;6.72;5.47;;;;;;;13.68;47.70;99894.53;1754353;81;20937;-72
2021/04/09 11:33:39;;;;;;;5.92;4.55;;;;;;;13.60;46.41;99899.00;1738310;81;20993;-74
2021/04/09 11:36:24;;;;;;;6.45;5.15;;;;;;;13.46;46.71;99900.41;1761913;80;20899;-72
2021/04/09 11:39:08;;;;;;;5.72;5.12;;;;;;;13.46;47.20;99901.30;1705634;84;21205;-72
2021/04/09 11:41:38;;;;;;;6.12;5.25;;;;;;;13.41;46.70;99899.12;1774497;81;20939;-72
2021/04/09 11:44:33;;;;;;;5.53;4.83;;;;;;;13.22;45.99;99898.75;1705670;84;20943;-72
2021/04/09 11:47:25;;;;;;;7.10;4.95;;;;;;;13.16;46.56;99894.33;1771353;80;21600;-71
2021/04/09 11:50:15;;;;;;;7.65;5.58;;;;;;;13.09;46.12;99896.57;1748128;80;20989;-72
2021/04/09 11:52:51;;;;;;;7.58;4.90;;;;;;;12.91;45.77;99896.20;1754720;80;21191;-72
2021/04/09 11:55:25;;;;;;;5.17;4.45;;;;;;;12.73;45.64;99895.35;1771850;80;21517;-71
2021/04/09 11:57:56;;;;;;;6.25;5.22;;;;;;;12.70;45.78;99898.89;1774032;80;20939;-71
2021/04/09 12:00:30;;;;;;;5.60;4.87;;;;;;;12.65;45.78;99894.49;1688990;82;21040;-73
2021/04/09 12:03:05;;;;;;;5.75;5.10;;;;;;;12.57;45.79;99891.87;1754816;81;20951;-72
2021/04/09 12:05:35;;;;;;;5.83;5.22;;;;;;;12.47;45.82;99887.04;1737714;82;21333;-73
2021/04/09 12:08:06;;;;;;;6.33;5.53;;;;;;;12.34;45.61;99889.71;1734195;81;20958;-72
2021/04/09 12:10:36;;;;;;;7.08;5.03;;;;;;;12.23;45.58;99887.93;1748676;80;20944;-72
2021/04/09 12:13:06;;;;;;;7.20;5.42;;;;;;;12.18;45.73;99879.13;1748604;81;20944;-72
2021/04/09 12:15:39;;;;;;;5.78;5.17;;;;;;;12.16;45.55;99880.00;1748698;80;20929;-72
2021/04/09 12:18:10;;;;;;;6.28;5.67;;;;;;;12.14;46.07;99874.72;1748667;81;21366;-72
2021/04/09 12:20:43;;;;;;;7.58;5.95;;;;;;;12.08;46.65;99882.66;1748735;80;21083;-72
2021/04/09 12:23:15;;;;;;;7.33;5.90;;;;;;;12.03;47.38;99881.78;1754190;80;20981;-73
2021/04/09 12:25:58;;;;;;;6.70;5.65;;;;;;;11.96;47.46;99875.61;1769167;80;21771;-73
2021/04/09 12:28:30;;;;;;;6.65;5.97;;;;;;;11.94;47.78;99880.02;1706012;82;21212;-72
2021/04/09 12:31:01;;;;;;;6.25;5.50;;;;;;;11.91;48.12;99873.85;1775032;81;21209;-72
2021/04/09 12:33:31;;;;;;;9.00;5.62;;;;;;;11.88;48.18;99869.88;1706238;84;20959;-72
2021/04/09 12:36:05;;;;;;;6.83;5.65;;;;;;;11.80;48.00;99871.61;1772029;81;20968;-72
2021/04/09 12:38:40;;;;;;;6.65;5.22;;;;;;;11.78;48.04;99872.05;1751518;81;20931;-73
2021/04/09 12:41:10;;;;;;;8.30;5.97;;;;;;;11.72;48.09;99866.29;1730168;82;20944;-72
2021/04/09 12:43:41;;;;;;;6.47;5.78;;;;;;;11.67;48.18;99873.34;1700924;83;21510;-73
2021/04/09 12:46:13;;;;;;;6.80;5.80;;;;;;;11.73;49.30;99862.77;1700629;83;21023;-73
2021/04/09 12:48:45;;;;;;;8.88;6.30;;;;;;;11.90;50.54;99871.65;1769184;80;21002;-69
2021/04/09 12:51:15;;;;;;;7.95;5.55;;;;;;;12.07;50.55;99860.18;1701178;83;20996;-70
2021/04/09 12:53:46;;;;;;;6.22;5.25;;;;;;;12.32;50.63;99856.64;1701267;84;21447;-70
2021/04/09 12:56:17;;;;;;;6.70;5.33;;;;;;;12.59;49.86;99864.95;1701118;84;21157;-72
2021/04/09 12:58:48;;;;;;;5.15;4.65;;;;;;;12.86;49.47;99861.36;1730333;82;20908;-72
2021/04/09 13:01:19;;;;;;;6.05;4.90;;;;;;;13.00;48.83;99863.50;1730252;83;21368;-73
2021/04/09 13:03:49;;;;;;;6.90;5.35;;;;;;;13.12;48.20;99858.14;1701132;84;20948;-72
2021/04/09 13:06:21;;;;;;;6.70;5.78;;;;;;;13.20;46.73;99859.47;1769545;80;20916;-72
2021/04/09 13:08:51;;;;;;;7.35;5.78;;;;;;;13.21;46.03;99854.60;1751796;81;22255;-69
2021/04/09 13:11:22;;;;;;;7.22;5.97;;;;;;;13.12;45.74;99855.94;1745447;81;21519;-70
2021/04/09 13:13:54;;;;;;;8.28;5.85;;;;;;;12.97;45.37;99862.20;1745420;81;20937;-70
2021/04/09 13:16:24;;;;;;;8.60;7.20;;;;;;;12.81;45.18;99859.17;1745776;81;21115;-69
2021/04/09 13:18:54;;;;;;;7.72;6.08;;;;;;;12.69;45.18;99860.06;1745795;80;20980;-73
2021/04/09 13:21:25;;;;;;;11.78;8.65;;;;;;;12.57;45.38;99851.73;1745824;81;21364;-72
2021/04/09 13:23:55;;;;;;;11.57;8.80;;;;;;;12.47;45.34;99859.26;1745711;81;21012;-72
2021/04/09 13:26:26;;;;;;;9.55;7.67;;;;;;;12.38;45.27;99848.70;1745834;80;21547;-72
2021/04/09 13:28:58;;;;;;;11.75;6.92;;;;;;;12.32;45.28;99852.68;1745888;81;20977;-72
2021/04/09 13:31:29;;;;;;;9.55;5.97;;;;;;;12.26;45.42;99850.89;1745771;81;20929;-70
2021/04/09 13:34:00;;;;;;;11.43;6.30;;;;;;;12.20;45.50;99852.23;1745761;80;21638;-72
2021/04/09 13:36:30;;;;;;;6.28;5.53;;;;;;;12.16;46.22;99850.91;1747277;80;21277;-72
2021/04/09 13:39:01;;;;;;;6.97;5.60;;;;;;;12.12;46.18;99848.71;1748574;80;21079;-73
2021/04/09 13:41:31;;;;;;;6.72;4.95;;;;;;;12.14;46.80;99840.33;1748567;80;21688;-72
2021/04/09 13:44:03;;;;;;;6.37;5.28;;;;;;;12.18;47.13;99849.14;1748593;80;21229;-73
2021/04/09 13:46:32;;;;;;;8.25;5.55;;;;;;;12.21;47.10;99846.05;1748848;80;21353;-71
2021/04/09 13:49:01;;;;;;;5.35;4.62;;;;;;;12.23;47.17;99846.93;1746733;80;21156;-73
2021/04/09 13:51:32;;;;;;;8.98;5.45;;;;;;;12.33;47.43;99852.23;1745551;80;21168;-72
2021/04/09 13:54:01;;;;;;;8.45;5.20;;;;;;;12.44;47.35;99843.83;1767151;80;21088;-72
2021/04/09 13:56:32;;;;;;;6.37;5.25;;;;;;;12.60;47.25;99842.45;1764657;79;21689;-70
2021/04/09 13:59:03;;;;;;;5.45;4.72;;;;;;;12.78;46.57;99845.95;1763862;80;21017;-71
2021/04/09 14:01:34;;;;;;;7.58;5.35;;;;;;;12.91;46.29;99843.69;1774258;79;21192;-70
2021/04/09 14:04:05;;;;;;;7.30;5.25;;;;;;;13.05;46.11;99847.59;1776305;79;21097;-70
2021/04/09 14:06:35;;;;;;;5.70;4.65;;;;;;;13.13;45.83;99846.66;1758466;79;21129;-69
2021/04/09 14:09:06;;;;;;;7.08;4.55;;;;;;;13.15;45.28;99843.56;1707955;84;21082;-70
2021/04/09 14:11:39;;;;;;;6.95;5.10;;;;;;;13.15;44.61;99847.53;1748625;80;21167;-70
2021/04/09 14:14:08;;;;;;;15.60;6.65;;;;;;;13.16;44.13;99841.79;1749280;80;20958;-72
2021/04/09 14:16:40;;;;;;;28.70;18.50;;;;;;;13.11;43.92;99840.49;1775159;80;20930;-76
2021/04/09 14:19:11;;;;;;;22.75;16.80;;;;;;;13.06;43.62;99838.31;1713086;82;21065;-75
2021/04/09 14:21:42;;;;;;;15.35;11.38;;;;;;;12.98;43.07;99837.92;1772339;80;21041;-75
2021/04/09 14:24:13;;;;;;;12.45;7.78;;;;;;;12.90;42.67;99831.34;1776506;79;21187;-74
2021/04/09 14:26:45;;;;;;;12.15;7.37;;;;;;;12.83;42.55;99834.90;1776826;80;21480;-72
2021/04/09 14:29:16;;;;;;;7.40;5.20;;;;;;;12.79;42.97;99831.83;1776931;80;20954;-73
2021/04/09 14:31:47;;;;;;;7.37;5.00;;;;;;;12.73;43.01;99831.38;1776865;80;20886;-72
2021/04/09 14:34:23;;;;;;;4.37;3.98;;;;;;;12.70;42.54;99832.72;1777134;79;20933;-73
2021/04/09 14:36:58;;;;;;;6.03;4.58;;;;;;;12.68;42.26;99834.48;1773210;80;21027;-72
2021/04/09 14:39:34;;;;;;;6.62;4.50;;;;;;;12.69;42.06;99826.10;1771476;81;21160;-72
2021/04/09 14:42:06;;;;;;;8.23;5.30;;;;;;;12.70;42.86;99834.03;1771546;79;20978;-73
2021/04/09 14:44:36;;;;;;;5.78;4.62;;;;;;;12.78;43.16;99832.72;1752150;81;21104;-72
2021/04/09 14:47:08;;;;;;;6.92;4.50;;;;;;;12.85;43.15;99828.70;1752979;80;21282;-72
2021/04/09 14:49:39;;;;;;;5.22;4.72;;;;;;;12.91;42.95;99823.83;1771575;79;21129;-74
2021/04/09 14:52:15;;;;;;;5.10;4.28;;;;;;;12.99;43.03;99825.99;1771198;79;21132;-74
2021/04/09 14:54:44;;;;;;;8.95;6.70;;;;;;;13.08;42.45;99823.73;1771582;81;21061;-73
2021/04/09 14:57:15;;;;;;;5.08;4.47;;;;;;;13.08;41.54;99821.97;1771660;79;20993;-73
2021/04/09 14:59:46;;;;;;;5.20;4.30;;;;;;;13.11;41.19;99823.28;1771625;79;21061;-74
2021/04/09 15:02:18;;;;;;;5.95;4.12;;;;;;;13.16;40.97;99822.80;1771538;79;21207;-73
2021/04/09 15:04:49;;;;;;;5.92;5.05;;;;;;;13.21;40.33;99823.69;1771522;81;20954;-72
2021/04/09 15:07:21;;;;;;;5.20;4.30;;;;;;;13.21;40.58;99818.39;1771450;80;21358;-72
2021/04/09 15:09:51;;;;;;;5.67;4.80;;;;;;;13.22;40.90;99816.63;1771273;81;21049;-73
2021/04/09 15:12:22;;;;;;;5.70;4.40;;;;;;;13.21;41.20;99814.41;1771246;81;20954;-73
2021/04/09 15:14:54;;;;;;;6.75;4.65;;;;;;;13.19;41.37;99817.52;1771453;79;20982;-72
2021/04/09 15:17:30;;;;;;;6.33;5.15;;;;;;;13.17;41.34;99818.42;1771263;79;21140;-71
2021/04/09 15:20:00;;;;;;;6.62;4.70;;;;;;;13.14;41.59;99821.05;1771339;81;21065;-74
2021/04/09 15:22:32;;;;;;;6.45;4.90;;;;;;;13.11;41.79;99821.07;1771566;79;20950;-74
2021/04/09 15:25:04;;;;;;;6.50;4.50;;;;;;;13.09;41.78;99816.23;1771242;81;21010;-75
2021/04/09 15:27:36;;;;;;;7.12;4.95;;;;;;;13.08;41.76;99821.09;1771066;79;21233;-75
2021/04/09 15:30:11;;;;;;;5.92;5.28;;;;;;;13.06;41.45;99824.19;1771396;79;21009;-74
2021/04/09 15:32:41;;;;;;;13.72;7.10;;;;;;;13.03;41.29;99825.09;1771272;79;21476;-72
2021/04/09 15:35:15;;;;;;;7.25;5.47;;;;;;;12.98;40.98;99825.55;1771516;79;21045;-76
2021/04/09 15:37:45;;;;;;;5.22;4.70;;;;;;;12.97;41.32;99825.12;1771430;79;21014;-75
2021/04/09 15:40:17;;;;;;;5.90;4.20;;;;;;;12.97;41.68;99826.89;1771306;79;21384;-75
2021/04/09 15:42:47;;;;;;;5.92;4.08;;;;;;;12.97;42.13;99830.86;1771070;79;21144;-76
2021/04/09 15:45:18;;;;;;;6.97;4.60;;;;;;;13.03;42.38;99829.50;1771440;80;20978;-75
2021/04/09 15:47:48;;;;;;;6.03;4.50;;;;;;;13.10;42.52;99836.09;1770884;79;21449;-77
2021/04/09 15:50:22;;;;;;;8.33;5.03;;;;;;;13.23;42.81;99829.86;1771297;81;20895;-76
2021/04/09 15:52:54;;;;;;;5.42;4.78;;;;;;;13.43;42.21;99832.41;1770848;81;20962;-76
2021/04/09 15:55:24;;;;;;;6.15;4.55;;;;;;;13.78;41.93;99828.64;1770853;81;21089;-75
2021/04/09 15:57:54;;;;;;;7.95;5.87;;;;;;;14.30;41.48;99829.51;1771111;79;20926;-76
2021/04/09 16:00:24;;;;;;;8.18;5.65;;;;;;;14.76;40.77;99825.49;1770920;79;21076;-75
2021/04/09 16:02:54;;;;;;;5.28;4.65;;;;;;;15.11;40.05;99825.48;1770834;81;21088;-75
2021/04/09 16:05:24;;;;;;;5.87;4.97;;;;;;;15.24;39.67;99826.22;1770789;81;21493;-74
2021/04/09 16:07:55;;;;;;;6.42;4.30;;;;;;;15.15;39.32;99827.23;1770611;80;21096;-74
2021/04/09 16:10:27;;;;;;;11.85;4.67;;;;;;;14.94;38.96;99831.02;1770829;79;20942;-76
2021/04/09 16:12:58;;;;;;;22.82;4.75;;;;;;;14.69;38.61;99835.77;1768582;81;21066;-78
2021/04/09 16:15:27;;;;;;;8.85;5.72;;;;;;;14.42;38.58;99839.58;1742060;81;21055;-74
2021/04/09 16:18:01;;;;;;;12.07;6.72;;;;;;;14.16;38.76;99836.25;1686936;83;21070;-75
2021/04/09 16:20:31;;;;;;;10.60;8.03;;;;;;;13.91;38.59;99842.67;1673371;85;21149;-76
2021/04/09 16:23:02;;;;;;;13.35;9.25;;;;;;;13.66;38.62;99841.96;1740563;81;21046;-74
2021/04/09 16:25:33;;;;;;;38.42;22.20;;;;;;;13.42;38.97;99846.55;1687795;83;21188;-75
2021/04/09 16:28:05;;;;;;;35.38;20.80;;;;;;;13.20;39.45;99844.89;1673534;84;21121;-74
2021/04/09 16:30:38;;;;;;;38.65;21.60;;;;;;;13.03;40.53;99848.92;1740895;81;21225;-74
2021/04/09 16:33:08;;;;;;;25.90;17.62;;;;;;;12.82;41.48;99847.25;1740780;82;20954;-75
2021/04/09 16:35:40;;;;;;;24.43;14.95;;;;;;;12.68;42.41;99848.16;1740820;81;21053;-75
2021/04/09 16:38:11;;;;;;;25.60;16.17;;;;;;;12.51;43.42;99851.75;1747539;82;21080;-74
2021/04/09 16:40:41;;;;;;;30.50;14.58;;;;;;;12.33;44.64;99853.12;1749048;82;21048;-73
2021/04/09 16:43:19;;;;;;;11.65;7.90;;;;;;;12.16;46.12;99847.83;1748483;80;21237;-74
2021/04/09 16:45:48;;;;;;;9.25;6.17;;;;;;;11.98;46.53;99852.70;1748579;80;21489;-74
2021/04/09 16:48:19;;;;;;;8.05;5.83;;;;;;;11.79;46.92;99850.91;1778201;80;21460;-75
2021/04/09 16:50:52;;;;;;;11.28;7.72;;;;;;;11.61;47.28;99854.39;1777043;79;20918;-75
2021/04/09 16:53:22;;;;;;;36.68;7.72;;;;;;;11.40;47.59;99850.84;1779722;80;20990;-74
2021/04/09 16:55:53;;;;;;;15.38;6.58;;;;;;;11.15;48.17;99845.48;1779592;79;21356;-73
2021/04/09 16:58:24;;;;;;;11.45;5.53;;;;;;;10.96;49.42;99856.42;1779753;79;21610;-73
2021/04/09 17:00:53;;;;;;;7.33;5.83;;;;;;;10.76;50.26;99855.44;1773475;80;21532;-70
2021/04/09 17:03:23;;;;;;;7.75;6.53;;;;;;;10.57;50.78;99864.14;1693771;82;21016;-70
2021/04/09 17:05:54;;;;;;;13.28;8.63;;;;;;;10.35;51.05;99866.63;1705601;83;21184;-74
2021/04/09 17:08:24;;;;;;;15.32;10.53;;;;;;;10.19;51.14;99865.17;1710765;83;21389;-70
2021/04/09 17:10:55;;;;;;;15.00;10.43;;;;;;;10.05;51.16;99867.28;1709775;82;21588;-69
2021/04/09 17:13:27;;;;;;;14.03;9.80;;;;;;;9.93;51.20;99864.55;1710203;82;21114;-68
2021/04/09 17:15:58;;;;;;;14.78;10.20;;;;;;;9.84;51.16;99867.08;1717535;83;21055;-67
2021/04/09 17:18:31;;;;;;;12.85;10.13;;;;;;;9.73;51.45;99873.58;1687331;83;20946;-72
2021/04/09 17:21:02;;;;;;;12.13;9.05;;;;;;;9.62;52.08;99875.23;1690673;85;21214;-73
2021/04/09 17:23:32;;;;;;;14.13;8.60;;;;;;;9.51;52.18;99869.42;1690116;84;20957;-60
2021/04/09 17:26:02;;;;;;;10.13;7.67;;;;;;;9.38;52.21;99882.43;1706436;82;21077;-66
2021/04/09 17:28:32;;;;;;;11.90;8.80;;;;;;;9.27;52.84;99877.48;1723264;82;21104;-75
2021/04/09 17:31:05;;;;;;;12.40;8.78;;;;;;;9.15;53.29;99879.99;1696496;83;21479;-66
2021/04/09 17:33:35;;;;;;;12.63;9.45;;;;;;;9.03;54.03;99881.17;1712573;83;21596;-72
2021/04/09 17:36:07;;;;;;;13.10;10.32;;;;;;;8.92;54.41;99882.33;1715563;83;20949;-78
2021/04/09 17:38:37;;;;;;;14.68;9.73;;;;;;;8.82;54.36;99882.64;1692835;82;21093;-73
2021/04/09 17:41:07;;;;;;;14.20;7.87;;;;;;;8.73;54.91;99881.65;1682370;84;21080;-70
2021/04/09 17:43:40;;;;;;;25.50;7.15;;;;;;;8.65;55.99;99876.29;1705576;82;20941;-72
2021/04/09 17:46:10;;;;;;;8.80;6.95;;;;;;;8.60;56.57;99880.61;1734158;80;21365;-76
2021/04/09 17:48:41;;;;;;;8.40;5.37;;;;;;;8.56;57.32;99881.42;1746260;80;20954;-72
2021/04/09 17:51:12;;;;;;;6.65;5.35;;;;;;;8.53;58.60;99881.39;1748361;80;20899;-71
2021/04/09 17:53:45;;;;;;;9.45;5.22;;;;;;;8.50;60.07;99884.83;1746796;80;21005;-74
2021/04/09 17:56:16;;;;;;;13.28;6.17;;;;;;;8.45;61.48;99886.94;1746542;80;20966;-75
2021/04/09 17:58:47;;;;;;;7.03;5.58;;;;;;;8.39;61.51;99891.68;1727390;81;21361;-74
2021/04/09 18:01:17;;;;;;;8.88;5.47;;;;;;;8.32;61.58;99892.42;1724016;80;21116;-72
2021/04/09 18:03:48;;;;;;;8.58;5.95;;;;;;;8.24;62.25;99887.48;1740977;80;21052;-70
2021/04/09 18:06:18;;;;;;;7.35;5.65;;;;;;;8.17;62.65;99890.88;1744642;82;21064;-72
2021/04/09 18:08:50;;;;;;;9.68;6.20;;;;;;;8.08;62.49;99895.56;1718864;82;22460;-60
2021/04/09 18:11:20;;;;;;;8.73;6.03;;;;;;;8.00;63.05;99891.91;1726801;80;21492;-62
2021/04/09 18:13:50;;;;;;;9.48;5.20;;;;;;;7.96;62.97;99896.65;1737256;80;20926;-74
2021/04/09 18:16:21;;;;;;;6.22;4.97;;;;;;;7.91;63.08;99889.13;1748779;80;21065;-75
2021/04/09 18:18:52;;;;;;;8.55;5.92;;;;;;;7.86;63.34;99898.25;1748969;80;21489;-74
2021/04/09 18:21:24;;;;;;;7.85;5.42;;;;;;;7.81;63.44;99901.23;1748908;80;21068;-74
2021/04/09 18:23:57;;;;;;;9.33;5.95;;;;;;;7.76;64.17;99887.56;1744627;80;21214;-75
2021/04/09 18:26:28;;;;;;;9.88;6.75;;;;;;;7.73;64.72;99898.02;1748983;80;20982;-71
2021/04/09 18:29:01;;;;;;;12.18;7.75;;;;;;;7.67;64.74;99897.91;1748155;80;20922;-77
2021/04/09 18:31:33;;;;;;;11.30;6.80;;;;;;;7.62;65.46;99900.45;1740451;80;21167;-75
2021/04/09 18:34:03;;;;;;;14.05;7.15;;;;;;;7.60;65.53;99898.66;1732277;82;20989;-64
2021/04/09 18:36:35;;;;;;;13.05;7.05;;;;;;;7.55;65.71;99899.44;1732877;80;21391;-76
2021/04/09 18:39:06;;;;;;;9.68;7.12;;;;;;;7.52;66.12;99899.38;1747215;81;21025;-77
2021/04/09 18:41:39;;;;;;;10.98;7.08;;;;;;;7.49;66.91;99896.70;1752191;81;21109;-82
2021/04/09 18:44:11;;;;;;;13.65;7.22;;;;;;;7.47;67.72;99898.41;1756410;81;21144;-76
2021/04/09 18:46:42;;;;;;;12.05;7.78;;;;;;;7.44;67.47;99899.67;1756829;79;21192;-77
2021/04/09 18:49:16;;;;;;;10.20;6.72;;;;;;;7.39;66.99;99900.44;1752266;80;21167;-76
2021/04/09 18:51:52;;;;;;;9.08;6.90;;;;;;;7.36;68.04;99903.01;1757037;81;21477;-75
2021/04/09 18:54:23;;;;;;;9.85;6.95;;;;;;;7.31;68.73;99902.04;1745993;79;21635;-74
2021/04/09 18:56:53;;;;;;;9.90;7.35;;;;;;;7.27;69.19;99905.03;1753531;81;21151;-72
2021/04/09 18:59:24;;;;;;;9.88;7.65;;;;;;;7.17;69.89;99902.66;1755412;81;21144;-76
2021/04/09 19:01:59;;;;;;;12.68;7.83;;;;;;;7.09;70.51;99902.91;1750784;81;21422;-76
2021/04/09 19:04:29;;;;;;;10.72;6.62;;;;;;;7.03;70.96;99901.48;1754406;79;20931;-74
2021/04/09 19:07:00;;;;;;;12.10;8.13;;;;;;;6.99;71.71;99907.94;1687323;84;21632;-71
2021/04/09 19:09:31;;;;;;;12.90;8.40;;;;;;;6.95;72.16;99909.19;1688690;84;21530;-76
2021/04/09 19:12:00;;;;;;;10.30;7.30;;;;;;;6.90;72.78;99905.59;1755326;81;21167;-63
2021/04/09 19:14:32;;;;;;;13.08;7.90;;;;;;;6.86;73.59;99906.38;1753810;79;21379;-76
2021/04/09 19:17:03;;;;;;;17.77;8.28;;;;;;;6.80;74.54;99908.00;1757759;81;21314;-75
2021/04/09 19:19:33;;;;;;;12.95;7.80;;;;;;;6.76;74.64;99908.78;1755138;81;21148;-77
2021/04/09 19:22:03;;;;;;;13.58;7.58;;;;;;;6.70;74.89;99905.61;1755881;79;21029;-75
2021/04/09 19:24:36;;;;;;;11.45;7.15;;;;;;;6.65;75.40;99907.67;1755654;79;21246;-75
2021/04/09 19:27:07;;;;;;;8.83;7.20;;;;;;;6.56;76.89;99910.95;1756424;81;21366;-75
2021/04/09 19:29:37;;;;;;;11.03;7.10;;;;;;;6.56;76.89;99910.95;1754433;79;21195;-76
2021/04/09 19:32:11;;;;;;;8.50;6.65;;;;;;;6.50;77.69;99915.63;1687609;83;21070;-76
2021/04/09 19:34:41;;;;;;;9.33;6.87;;;;;;;6.45;78.29;99909.83;1691056;84;21063;-73
2021/04/09 19:37:12;;;;;;;9.88;7.35;;;;;;;6.40;78.89;99912.34;1771611;81;20946;-74
2021/04/09 19:39:42;;;;;;;12.05;7.55;;;;;;;6.35;78.97;99902.18;1760771;80;21211;-77
2021/04/09 19:42:15;;;;;;;11.43;8.13;;;;;;;6.31;79.38;99900.34;1667417;85;21109;-72
2021/04/09 19:44:47;;;;;;;14.13;8.40;;;;;;;6.25;79.76;99902.83;1744646;81;21037;-75
2021/04/09 19:47:18;;;;;;;13.15;7.40;;;;;;;6.22;80.28;99903.64;1771545;79;20925;-74
2021/04/09 19:49:49;;;;;;;12.98;7.83;;;;;;;6.20;80.83;99907.07;1733479;79;21076;-79
2021/04/09 19:52:19;;;;;;;9.98;7.40;;;;;;;6.16;81.09;99898.26;1707766;82;21202;-73
2021/04/09 19:54:59;;;;;;;12.30;7.72;;;;;;;6.15;80.85;99899.50;1723066;82;21468;-73
2021/04/09 19:57:26;;;;;;;10.00;7.62;;;;;;;6.10;81.08;99897.20;1728584;82;21603;-73
2021/04/09 19:59:56;;;;;;;13.55;8.05;;;;;;;6.07;81.13;99898.44;1740856;81;21128;-74
2021/04/09 20:02:25;;;;;;;14.83;8.98;;;;;;;6.04;81.04;99898.36;1740903;81;21148;-74
2021/04/09 20:04:55;;;;;;;13.05;9.38;;;;;;;6.04;81.20;99888.77;1740894;82;22187;-73
2021/04/09 20:07:24;;;;;;;13.93;9.95;;;;;;;6.03;82.00;99892.23;1740757;82;21026;-74
2021/04/09 20:09:54;;;;;;;16.17;10.63;;;;;;;6.01;82.15;99895.25;1749604;80;21128;-74
2021/04/09 20:12:25;;;;;;;12.53;8.90;;;;;;;5.98;81.92;99896.48;1760900;80;21117;-74
2021/04/09 20:14:56;;;;;;;15.10;9.65;;;;;;;5.96;83.07;99896.88;1770065;80;21532;-75
2021/04/09 20:17:25;;;;;;;15.05;9.40;;;;;;;5.93;84.01;99900.30;1769748;81;21371;-75
2021/04/09 20:19:55;;;;;;;13.05;9.08;;;;;;;5.92;84.06;99901.58;1769484;80;21141;-73
2021/04/09 20:22:25;;;;;;;17.02;10.05;;;;;;;5.88;83.86;99895.34;1701143;83;21565;-73
2021/04/09 20:24:54;;;;;;;14.33;9.78;;;;;;;5.84;83.65;99896.55;1765819;79;21006;-74
2021/04/09 20:27:23;;;;;;;15.32;10.40;;;;;;;5.83;83.89;99903.51;1761350;80;21132;-75
2021/04/09 20:29:54;;;;;;;18.23;10.60;;;;;;;5.80;84.23;99906.05;1761272;80;21425;-74
2021/04/09 20:32:24;;;;;;;15.32;10.05;;;;;;;5.75;83.95;99901.55;1761338;80;21042;-74
2021/04/09 20:34:54;;;;;;;16.57;10.08;;;;;;;5.71;84.02;99908.44;1746607;80;21156;-74
2021/04/09 20:37:24;;;;;;;14.68;10.65;;;;;;;5.66;84.16;99902.17;1740714;81;21124;-74
2021/04/09 20:39:54;;;;;;;17.17;10.68;;;;;;;5.61;84.18;99895.94;1742021;80;21141;-75
2021/04/09 20:42:23;;;;;;;15.93;10.50;;;;;;;5.57;84.35;99901.94;1748008;80;21563;-74
2021/04/09 20:44:53;;;;;;;18.85;11.20;;;;;;;5.53;84.33;99909.25;1755230;80;21037;-74
2021/04/09 20:47:23;;;;;;;21.75;11.25;;;;;;;5.51;84.47;99907.02;1770107;79;20978;-76
2021/04/09 20:49:54;;;;;;;20.68;11.55;;;;;;;5.47;84.54;99913.90;1778684;80;21033;-78
2021/04/09 20:52:24;;;;;;;16.90;10.78;;;;;;;5.43;84.57;99912.05;1748883;80;20954;-75
2021/04/09 20:54:54;;;;;;;15.30;10.55;;;;;;;5.39;84.44;99910.20;1711199;82;22257;-75
2021/04/09 20:57:25;;;;;;;14.75;10.50;;;;;;;5.39;84.56;99912.81;1711161;84;21561;-75
2021/04/09 20:59:56;;;;;;;13.95;9.78;;;;;;;5.36;85.44;99904.46;1711262;84;20959;-76
2021/04/09 21:02:26;;;;;;;16.25;9.33;;;;;;;5.35;86.06;99911.84;1696473;83;21061;-74
2021/04/09 21:04:55;;;;;;;14.68;10.82;;;;;;;5.34;86.80;99911.80;1719705;83;21073;-74
2021/04/09 21:07:24;;;;;;;16.32;10.50;;;;;;;5.30;87.23;99911.27;1716355;83;21217;-74
2021/04/09 21:09:54;;;;;;;13.53;9.85;;;;;;;5.29;87.42;99913.41;1691059;83;20992;-75
2021/04/09 21:12:25;;;;;;;18.00;10.58;;;;;;;5.27;87.88;99912.06;1690897;83;21535;-75
2021/04/09 21:14:56;;;;;;;16.12;10.82;;;;;;;5.24;88.44;99906.75;1690972;83;20933;-75
2021/04/09 21:17:28;;;;;;;15.23;11.03;;;;;;;5.23;88.82;99909.33;1690867;83;20980;-75
2021/04/09 21:19:57;;;;;;;15.30;10.32;;;;;;;5.21;89.21;99914.52;1690927;83;21160;-75
2021/04/09 21:22:28;;;;;;;15.20;10.20;;;;;;;5.21;89.27;99908.40;1713323;83;21065;-74
2021/04/09 21:24:57;;;;;;;14.13;10.03;;;;;;;5.17;89.57;99907.39;1690903;83;21536;-75
2021/04/09 21:27:27;;;;;;;19.77;9.60;;;;;;;5.17;89.97;99915.23;1701199;83;20967;-75
2021/04/09 21:29:58;;;;;;;17.60;10.48;;;;;;;5.14;89.92;99907.31;1709787;84;20921;-75
2021/04/09 21:32:28;;;;;;;14.53;10.00;;;;;;;5.10;90.11;99907.19;1718064;83;21093;-75